createdAt,value
2023-05-22T04:28:30.398Z,100089.50
2023-05-22T04:31:33.671Z,100095.41
2023-05-22T04:34:37.701Z,100100.50
2023-05-22T04:37:45.580Z,100093.22
2023-05-22T04:40:48.774Z,100086.50
2023-05-22T04:43:53.064Z,100088.31
2023-05-22T04:46:57.461Z,100091.94
2023-05-22T04:50:00.909Z,100094.97
2023-05-22T04:53:06.409Z,100097.00
2023-05-22T04:56:09.724Z,100104.44
2023-05-22T04:59:16.267Z,100104.00
2023-05-22T05:02:19.410Z,100101.19
2023-05-22T05:05:23.490Z,100100.50
2023-05-22T05:08:26.653Z,100098.19
2023-05-22T05:11:29.953Z,100104.34
2023-05-22T05:14:32.947Z,100113.38
2023-05-22T05:17:35.664Z,100118.81
2023-05-22T05:20:38.931Z,100111.78
2023-05-22T05:23:41.808Z,100116.25
2023-05-22T05:26:45.404Z,100116.69
2023-05-22T05:29:48.296Z,100113.50
2023-05-22T05:32:52.594Z,100112.56
2023-05-22T05:35:55.835Z,100113.56
2023-05-22T05:38:59.424Z,100117.09
2023-05-22T05:42:02.149Z,100119.31
2023-05-22T05:45:05.985Z,100118.09
2023-05-22T05:48:08.932Z,100118.72
2023-05-22T05:51:13.239Z,100131.97
2023-05-22T05:54:17.535Z,100127.66
2023-05-22T05:57:21.106Z,100128.41
2023-05-22T06:00:25.233Z,100136.22
2023-05-22T06:03:31.318Z,100128.84
2023-05-22T06:06:39.397Z,100129.31
2023-05-22T06:09:43.426Z,100125.34
2023-05-22T06:12:46.523Z,100130.31
2023-05-22T06:15:50.983Z,100131.72
2023-05-22T06:18:53.775Z,100120.16
2023-05-22T06:21:57.000Z,100127.34
2023-05-22T06:25:00.519Z,100129.53
2023-05-22T06:28:04.046Z,100124.69
2023-05-22T06:31:07.204Z,100125.63
2023-05-22T06:34:10.574Z,100125.94
2023-05-22T06:37:13.349Z,100126.16
2023-05-22T06:40:17.274Z,100124.09
2023-05-22T06:43:22.563Z,100117.56
2023-05-22T06:46:26.203Z,100126.16
2023-05-22T06:49:29.120Z,100123.28
2023-05-22T06:52:33.864Z,100125.53
2023-05-22T06:55:37.549Z,100132.59
2023-05-22T06:58:41.771Z,100125.81
2023-05-22T07:01:44.511Z,100131.28
2023-05-22T07:04:49.159Z,100134.44
2023-05-22T07:07:52.163Z,100127.34
2023-05-22T07:10:56.111Z,100127.34
2023-05-22T07:13:58.840Z,100124.38
2023-05-22T07:17:02.164Z,100119.72
2023-05-22T07:20:06.994Z,100123.06
2023-05-22T07:23:11.493Z,100125.44
2023-05-22T07:26:14.239Z,100125.09
2023-05-22T07:29:18.369Z,100116.88
2023-05-22T07:32:22.257Z,100114.03
2023-05-22T07:35:25.627Z,100126.09
2023-05-22T07:38:29.092Z,100121.22
2023-05-22T07:41:32.491Z,100123.69
2023-05-22T07:44:35.542Z,100122.44
2023-05-22T07:47:40.039Z,100129.06
2023-05-22T07:50:45.423Z,100132.13
2023-05-22T07:53:49.316Z,100125.13
2023-05-22T07:56:52.959Z,100135.97
2023-05-22T07:59:57.039Z,100127.25
2023-05-22T08:02:59.906Z,100119.91
2023-05-22T08:06:04.487Z,100120.00
2023-05-22T08:09:07.222Z,100122.25
2023-05-22T08:12:10.425Z,100129.72
2023-05-22T08:15:14.031Z,100129.31
2023-05-22T08:18:20.820Z,100129.53
2023-05-22T08:21:23.482Z,100134.41
2023-05-22T08:24:30.646Z,100132.41
2023-05-22T08:27:33.330Z,100128.94
2023-05-22T08:30:37.446Z,100135.50
2023-05-22T08:33:40.370Z,100121.50
2023-05-22T08:36:43.385Z,100121.78
2023-05-22T08:39:46.258Z,100119.66
2023-05-22T08:42:51.532Z,100106.78
2023-05-22T08:46:06.075Z,100107.63
2023-05-22T08:49:10.025Z,100102.25
2023-05-22T08:52:37.883Z,100114.94
2023-05-22T08:55:41.304Z,100108.75
2023-05-22T08:58:46.032Z,100109.94
2023-05-22T09:01:52.391Z,100101.94
2023-05-22T09:04:55.078Z,100109.72
2023-05-22T09:08:02.634Z,100109.50
2023-05-22T09:11:08.389Z,100109.09
2023-05-22T09:14:12.095Z,100106.25
2023-05-22T09:17:16.271Z,100112.69
2023-05-22T09:20:19.398Z,100108.25
2023-05-22T09:23:22.475Z,100103.72
2023-05-22T09:26:29.336Z,100107.09
2023-05-22T09:29:32.320Z,100105.56
2023-05-22T09:32:35.764Z,100101.31
2023-05-22T09:35:39.655Z,100096.34
2023-05-22T09:38:42.830Z,100094.16
2023-05-22T09:41:45.633Z,100093.25
2023-05-22T09:44:49.635Z,100087.47
2023-05-22T09:47:52.360Z,100095.88
2023-05-22T09:50:56.127Z,100100.97
2023-05-22T09:54:03.855Z,100107.97
2023-05-22T09:57:09.643Z,100105.25
2023-05-22T10:00:20.037Z,100106.13
2023-05-22T10:03:24.751Z,100104.53
2023-05-22T10:06:28.792Z,100103.78
2023-05-22T10:09:35.695Z,100103.31
2023-05-22T10:13:01.007Z,100104.41
2023-05-22T10:16:05.070Z,100099.78
2023-05-22T10:19:08.483Z,100096.34
2023-05-22T10:22:14.942Z,100086.19
2023-05-22T10:25:18.508Z,100078.97
2023-05-22T10:28:27.732Z,100078.47
2023-05-22T10:31:43.217Z,100074.22
2023-05-22T10:34:52.033Z,100078.81
2023-05-22T10:38:22.601Z,100077.75
2023-05-22T10:41:26.527Z,100076.16
2023-05-22T10:44:29.416Z,100071.19
2023-05-22T10:47:35.896Z,100071.25
2023-05-22T10:50:39.886Z,100073.12
2023-05-22T10:53:45.146Z,100074.84
2023-05-22T10:56:47.978Z,100066.66
2023-05-22T10:59:51.453Z,100057.41
2023-05-22T11:03:17.029Z,100056.47
2023-05-22T11:06:45.924Z,100050.19
2023-05-22T11:09:48.979Z,100041.50
2023-05-22T11:13:03.857Z,100047.06
2023-05-22T11:16:06.702Z,100038.53
2023-05-22T11:19:22.856Z,100043.22
2023-05-22T11:22:36.691Z,100036.19
2023-05-22T11:25:41.292Z,100035.47
2023-05-22T11:28:48.815Z,100031.16
2023-05-22T11:31:52.302Z,100021.09
2023-05-22T11:34:57.325Z,100020.94
2023-05-22T11:38:05.327Z,100015.91
2023-05-22T11:41:13.860Z,100020.84
2023-05-22T11:44:16.802Z,100009.91
2023-05-22T11:47:19.517Z,100009.50
2023-05-22T11:50:43.687Z,100008.41
2023-05-22T11:53:45.624Z,100006.28
2023-05-22T11:56:48.991Z,100006.16
2023-05-22T11:59:51.828Z,100003.03
2023-05-22T12:02:55.205Z,99994.09
2023-05-22T12:05:59.132Z,99994.13
2023-05-22T12:09:02.821Z,99999.50
2023-05-22T12:12:12.005Z,99994.88
2023-05-22T12:15:14.751Z,99993.78
2023-05-22T12:18:19.385Z,99980.84
2023-05-22T12:21:22.076Z,99982.44
2023-05-22T12:24:25.155Z,99983.63
2023-05-22T12:27:34.480Z,99978.16
2023-05-22T12:30:42.346Z,99971.53
2023-05-22T12:33:45.076Z,99967.62
2023-05-22T12:36:48.131Z,99962.53
2023-05-22T12:40:01.853Z,99965.28
2023-05-22T12:43:04.978Z,99964.91
2023-05-22T12:46:07.751Z,99958.66
2023-05-22T12:49:11.198Z,99952.75
2023-05-22T12:52:13.838Z,99951.66
2023-05-22T12:55:16.796Z,99952.03
2023-05-22T12:58:19.413Z,99947.34
2023-05-22T13:01:24.398Z,99946.91
2023-05-22T13:04:27.092Z,99940.69
2023-05-22T13:07:30.070Z,99947.72
2023-05-22T13:10:32.788Z,99939.94
2023-05-22T13:13:35.833Z,99935.62
2023-05-22T13:16:38.551Z,99932.13
2023-05-22T13:19:41.567Z,99936.03
2023-05-22T13:22:44.263Z,99929.41
2023-05-22T13:25:47.499Z,99926.66
2023-05-22T13:28:51.017Z,99928.66
2023-05-22T13:31:54.009Z,99939.16
2023-05-22T13:34:56.673Z,99925.09
2023-05-22T13:38:00.324Z,99929.81
2023-05-22T13:41:03.182Z,99920.44
2023-05-22T13:44:06.218Z,99911.88
2023-05-22T13:47:09.137Z,99918.84
2023-05-22T13:50:12.379Z,99916.81
2023-05-22T13:53:20.493Z,99909.47
2023-05-22T13:56:24.063Z,99911.88
2023-05-22T13:59:27.293Z,99906.78
2023-05-22T14:02:30.514Z,99905.59
2023-05-22T14:05:33.516Z,99904.06
2023-05-22T14:08:36.781Z,99904.81
2023-05-22T14:11:40.491Z,99901.69
2023-05-22T14:14:43.181Z,99897.41
2023-05-22T14:17:46.977Z,99900.94
2023-05-22T14:20:49.903Z,99899.38
2023-05-22T14:23:52.985Z,99907.16
2023-05-22T14:26:58.123Z,99898.59
2023-05-22T14:30:01.146Z,99896.22
2023-05-22T14:33:04.477Z,99888.03
2023-05-22T14:36:07.681Z,99888.44
2023-05-22T14:39:10.857Z,99884.97
2023-05-22T14:42:13.846Z,99885.72
2023-05-22T14:45:16.519Z,99884.94
2023-05-22T14:48:19.654Z,99874.78
2023-05-22T14:51:22.480Z,99878.31
2023-05-22T14:54:27.293Z,99881.44
2023-05-22T14:57:30.599Z,99881.44
2023-05-22T15:00:33.574Z,99880.66
2023-05-22T15:03:36.507Z,99879.87
2023-05-22T15:06:39.537Z,99877.50
2023-05-22T15:09:42.225Z,99878.31
2023-05-22T15:12:45.240Z,99870.53
2023-05-22T15:15:48.202Z,99867.41
2023-05-22T15:18:51.307Z,99858.81
2023-05-22T15:21:56.052Z,99858.44
2023-05-22T15:25:07.907Z,99859.22
2023-05-22T15:28:10.616Z,99859.22
2023-05-22T15:31:14.109Z,99862.34
2023-05-22T15:34:16.881Z,99858.41
2023-05-22T15:37:19.968Z,99852.56
2023-05-22T15:40:24.011Z,99854.94
2023-05-22T15:43:27.192Z,99855.31
2023-05-22T15:46:29.940Z,99853.38
2023-05-22T15:49:32.960Z,99852.59
2023-05-22T15:52:35.658Z,99850.66
2023-05-22T15:55:38.964Z,99843.25
2023-05-22T15:58:41.841Z,99836.25
2023-05-22T16:01:44.866Z,99841.28
2023-05-22T16:04:48.917Z,99848.69
2023-05-22T16:07:51.569Z,99845.59
2023-05-22T16:10:56.045Z,99840.13
2023-05-22T16:13:58.836Z,99832.69
2023-05-22T16:17:01.757Z,99837.78
2023-05-22T16:20:06.144Z,99842.47
2023-05-22T16:23:09.261Z,99842.88
2023-05-22T16:26:11.947Z,99838.56
2023-05-22T16:29:15.376Z,99844.75
2023-05-22T16:32:18.122Z,99842.78
2023-05-22T16:35:22.283Z,99840.53
2023-05-22T16:38:24.934Z,99834.28
2023-05-22T16:41:28.164Z,99840.13
2023-05-22T16:44:30.989Z,99835.44
2023-05-22T16:47:34.135Z,99840.53
2023-05-22T16:50:36.894Z,99842.41
2023-05-22T16:53:41.935Z,99847.44
2023-05-22T16:56:44.642Z,99841.97
2023-05-22T16:59:47.859Z,99838.41
2023-05-22T17:02:50.679Z,99847.34
2023-05-22T17:05:53.669Z,99844.59
2023-05-22T17:08:56.599Z,99843.34
2023-05-22T17:11:59.597Z,99851.09
2023-05-22T17:15:02.267Z,99842.38
2023-05-22T17:18:05.569Z,99847.75
2023-05-22T17:21:09.371Z,99852.00
2023-05-22T17:24:14.931Z,99855.63
2023-05-22T17:27:31.563Z,99867.12
2023-05-22T17:30:39.456Z,99853.34
2023-05-22T17:33:43.419Z,99850.47
2023-05-22T17:36:46.350Z,99852.88
2023-05-22T17:39:49.297Z,99854.41
2023-05-22T17:42:53.168Z,99845.03
2023-05-22T17:45:55.964Z,99844.56
2023-05-22T17:48:58.950Z,99849.44
2023-05-22T17:52:01.643Z,99842.63
2023-05-22T17:55:04.939Z,99843.63
2023-05-22T17:58:07.539Z,99843.34
2023-05-22T18:01:10.527Z,99852.31
2023-05-22T18:04:13.593Z,99855.75
2023-05-22T18:07:17.151Z,99852.44
2023-05-22T18:10:25.196Z,99859.06
2023-05-22T18:13:27.810Z,99863.44
2023-05-22T18:16:30.889Z,99865.97
2023-05-22T18:19:36.634Z,99878.28
2023-05-22T18:22:40.385Z,99882.62
2023-05-22T18:25:43.307Z,99882.53
2023-05-22T18:28:48.343Z,99887.34
2023-05-22T18:31:51.256Z,99883.50
2023-05-22T18:34:54.505Z,99884.66
2023-05-22T18:37:59.795Z,99881.63
2023-05-22T18:41:02.971Z,99881.81
2023-05-22T18:44:05.689Z,99887.31
2023-05-22T18:47:08.970Z,99878.78
2023-05-22T18:50:12.162Z,99889.19
2023-05-22T18:53:15.640Z,99885.56
2023-05-22T18:56:18.388Z,99877.81
2023-05-22T18:59:21.724Z,99874.25
2023-05-22T19:02:24.823Z,99878.63
2023-05-22T19:05:28.388Z,99881.09
2023-05-22T19:08:33.697Z,99884.47
2023-05-22T19:11:40.113Z,99885.81
2023-05-22T19:14:43.277Z,99893.59
2023-05-22T19:17:48.291Z,99905.53
2023-05-22T19:20:51.474Z,99901.59
2023-05-22T19:23:54.901Z,99904.47
2023-05-22T19:26:58.157Z,99901.31
2023-05-22T19:30:01.351Z,99903.25
2023-05-22T19:33:05.969Z,99914.81
2023-05-22T19:36:13.176Z,99912.75
2023-05-22T19:39:16.120Z,99913.78
2023-05-22T19:42:19.432Z,99919.97
2023-05-22T19:45:26.600Z,99922.16
2023-05-22T19:48:33.349Z,99928.03
2023-05-22T19:51:38.616Z,99927.34
2023-05-22T19:54:42.757Z,99923.84
2023-05-22T19:57:45.557Z,99924.03
2023-05-22T20:00:48.723Z,99921.69
2023-05-22T20:03:56.321Z,99921.75
2023-05-22T20:07:07.524Z,99919.00
2023-05-22T20:10:11.706Z,99922.25
2023-05-22T20:13:14.476Z,99910.41
2023-05-22T20:16:17.760Z,99909.87
2023-05-22T20:19:21.601Z,99910.31
2023-05-22T20:22:25.800Z,99900.91
2023-05-22T20:25:28.449Z,99903.63
2023-05-22T20:28:32.083Z,99901.87
2023-05-22T20:31:34.869Z,99902.09
2023-05-22T20:34:38.516Z,99894.91
2023-05-22T20:37:41.688Z,99895.56
2023-05-22T20:40:47.694Z,99888.50
2023-05-22T20:43:50.540Z,99889.28
2023-05-22T20:46:54.100Z,99891.09
2023-05-22T20:49:56.811Z,99887.37
2023-05-22T20:53:00.829Z,99896.69
2023-05-22T20:56:03.510Z,99897.72
2023-05-22T20:59:06.450Z,99901.84
2023-05-22T21:02:09.265Z,99891.66
2023-05-22T21:05:12.247Z,99888.38
2023-05-22T21:08:14.891Z,99889.06
2023-05-22T21:11:18.252Z,99885.50
2023-05-22T21:14:20.868Z,99885.69
2023-05-22T21:17:25.005Z,99874.59
2023-05-22T21:20:27.823Z,99886.97
2023-05-22T21:23:30.761Z,99875.72
2023-05-22T21:26:33.405Z,99883.84
2023-05-22T21:29:36.473Z,99883.91
2023-05-22T21:32:39.068Z,99891.28
2023-05-22T21:35:42.095Z,99892.81
2023-05-22T21:38:45.454Z,99886.81
2023-05-22T21:41:50.001Z,99892.56
2023-05-22T21:44:52.862Z,99899.53
2023-05-22T21:47:55.869Z,99898.88
2023-05-22T21:50:58.766Z,99901.25
2023-05-22T21:54:01.723Z,99893.56
2023-05-22T21:57:04.538Z,99897.00
2023-05-22T22:00:08.245Z,99892.19
2023-05-22T22:03:10.836Z,99895.16
2023-05-22T22:06:13.858Z,99896.81
